createdAt,value
2018-05-04T00:00:29.625Z,47.70
2018-05-04T00:02:33.433Z,47.50
2018-05-04T00:04:39.141Z,47.30
2018-05-04T00:06:43.037Z,47.40
2018-05-04T00:08:47.659Z,47.30
2018-05-04T00:10:52.744Z,47.30
2018-05-04T00:12:56.519Z,47.40
2018-05-04T00:15:00.416Z,47.30
2018-05-04T00:17:04.859Z,47.40
2018-05-04T00:19:08.706Z,47.40
2018-05-04T00:21:12.522Z,47.40
2018-05-04T00:23:17.388Z,47.60
2018-05-04T00:25:21.148Z,47.60
2018-05-04T00:27:24.973Z,47.50
2018-05-04T00:29:30.149Z,47.60
2018-05-04T00:31:35.049Z,47.40
2018-05-04T00:33:38.824Z,47.30
2018-05-04T00:35:43.821Z,47.50
2018-05-04T00:37:48.106Z,47.40
2018-05-04T00:39:52.841Z,47.40
2018-05-04T00:41:56.696Z,47.40
2018-05-04T00:44:00.560Z,47.30
2018-05-04T00:46:04.377Z,47.30
2018-05-04T00:48:08.590Z,47.00
2018-05-04T00:50:12.368Z,47.40
2018-05-04T00:52:16.307Z,47.20
2018-05-04T00:54:24.548Z,47.10
2018-05-04T00:56:28.369Z,47.20
2018-05-04T00:58:32.217Z,47.20
2018-05-04T01:00:36.340Z,46.80
2018-05-04T01:02:40.202Z,46.80
2018-05-04T01:04:44.640Z,46.70
2018-05-04T01:06:49.526Z,46.50
2018-05-04T01:08:54.143Z,46.60
2018-05-04T01:10:58.086Z,46.60
2018-05-04T01:13:02.155Z,46.80
2018-05-04T01:15:06.559Z,46.70
2018-05-04T01:17:11.137Z,46.60
2018-05-04T01:19:15.461Z,46.70
2018-05-04T01:21:19.230Z,46.60
2018-05-04T01:23:23.024Z,46.60
2018-05-04T01:25:27.133Z,46.60
2018-05-04T01:27:31.114Z,46.70
2018-05-04T01:29:35.652Z,46.70
2018-05-04T01:31:39.960Z,46.70
2018-05-04T01:33:43.850Z,46.70
2018-05-04T01:35:48.470Z,46.90
2018-05-04T01:37:53.312Z,46.80
2018-05-04T01:39:58.109Z,46.80
2018-05-04T01:42:02.448Z,46.80
2018-05-04T01:44:07.433Z,47.10
2018-05-04T01:46:11.297Z,47.10
2018-05-04T01:48:15.232Z,46.90
2018-05-04T01:50:19.390Z,47.00
2018-05-04T01:52:23.392Z,47.20
2018-05-04T01:54:27.610Z,47.20
2018-05-04T01:56:38.252Z,47.30
2018-05-04T01:58:42.180Z,47.30
2018-05-04T02:00:46.944Z,47.50
2018-05-04T02:02:50.786Z,47.50
2018-05-04T02:04:54.755Z,47.60
2018-05-04T02:07:00.349Z,47.70
2018-05-04T02:09:06.049Z,47.70
2018-05-04T02:11:09.899Z,47.70
2018-05-04T02:13:13.954Z,47.50
2018-05-04T02:15:18.139Z,47.60
2018-05-04T02:17:22.304Z,47.50
2018-05-04T02:19:26.212Z,47.40
2018-05-04T02:21:30.526Z,47.40
2018-05-04T02:23:34.489Z,47.20
2018-05-04T02:25:38.280Z,47.20
2018-05-04T02:27:42.237Z,47.10
2018-05-04T02:29:46.209Z,47.20
2018-05-04T02:31:50.795Z,47.10
2018-05-04T02:33:55.073Z,47.10
2018-05-04T02:36:00.577Z,47.10
2018-05-04T02:38:05.144Z,47.30
2018-05-04T02:40:09.323Z,47.20
2018-05-04T02:42:13.856Z,47.30
2018-05-04T02:44:17.717Z,47.30
2018-05-04T02:46:22.034Z,47.30
2018-05-04T02:48:25.944Z,47.20
2018-05-04T02:50:29.982Z,47.50
2018-05-04T02:52:33.881Z,47.40
2018-05-04T02:54:37.700Z,47.30
2018-05-04T02:56:41.539Z,47.60
2018-05-04T02:58:45.400Z,47.40
2018-05-04T03:00:49.331Z,47.20
2018-05-04T03:02:53.233Z,47.20
2018-05-04T03:04:57.541Z,46.90
2018-05-04T03:07:01.489Z,46.90
2018-05-04T03:09:05.608Z,47.00
2018-05-04T03:11:10.470Z,47.10
2018-05-04T03:13:14.445Z,46.90
2018-05-04T03:15:18.292Z,47.30
2018-05-04T03:17:22.630Z,47.20
2018-05-04T03:19:26.424Z,47.40
2018-05-04T03:21:30.286Z,47.40
2018-05-04T03:23:34.985Z,47.60
2018-05-04T03:25:38.795Z,47.50
2018-05-04T03:27:42.625Z,47.70
2018-05-04T03:29:47.546Z,47.60
2018-05-04T03:31:52.187Z,47.80
2018-05-04T03:33:56.047Z,47.60
2018-05-04T03:36:01.186Z,48.10
2018-05-04T03:38:05.038Z,48.40
2018-05-04T03:40:08.809Z,48.50
2018-05-04T03:42:13.653Z,48.40
2018-05-04T03:44:18.379Z,48.60
2018-05-04T03:46:22.349Z,48.50
2018-05-04T03:48:26.291Z,48.70
2018-05-04T03:50:30.218Z,48.70
2018-05-04T03:52:34.090Z,48.80
2018-05-04T03:54:42.458Z,49.00
2018-05-04T03:56:46.411Z,49.10
2018-05-04T04:03:08.315Z,49.20
2018-05-04T04:05:12.379Z,49.20
2018-05-04T04:07:17.501Z,49.50
2018-05-04T04:09:22.111Z,49.70
2018-05-04T04:11:26.053Z,49.70
2018-05-04T04:13:30.026Z,49.60
2018-05-04T04:15:33.899Z,49.50
2018-05-04T04:17:37.666Z,49.50
2018-05-04T04:19:41.969Z,49.60
2018-05-04T04:21:46.896Z,49.60
2018-05-04T04:23:51.627Z,49.40
2018-05-04T04:25:56.536Z,49.40
2018-05-04T04:28:00.372Z,49.40
2018-05-04T04:30:06.002Z,49.40
2018-05-04T04:32:11.150Z,49.30
2018-05-04T04:34:17.210Z,49.30
2018-05-04T04:36:21.098Z,49.30
2018-05-04T04:38:25.697Z,49.10
2018-05-04T04:40:29.539Z,49.10
2018-05-04T04:42:33.447Z,48.70
2018-05-04T04:44:37.628Z,48.70
2018-05-04T04:46:41.447Z,48.60
2018-05-04T04:48:46.003Z,48.30
2018-05-04T04:50:50.213Z,48.30
2018-05-04T04:52:54.051Z,48.40
2018-05-04T04:54:57.859Z,48.40
2018-05-04T04:57:02.041Z,48.30
2018-05-04T04:59:06.587Z,48.20
2018-05-04T05:01:10.482Z,48.20
2018-05-04T05:03:14.295Z,47.80
2018-05-04T05:05:18.973Z,47.70
2018-05-04T05:07:22.871Z,47.70
2018-05-04T05:09:26.705Z,47.70
2018-05-04T05:11:30.523Z,47.70
2018-05-04T05:13:34.334Z,47.30
2018-05-04T05:15:40.629Z,46.90
2018-05-04T05:17:45.239Z,46.60
2018-05-04T05:19:49.866Z,46.50
2018-05-04T05:21:54.809Z,46.20
2018-05-04T05:23:58.640Z,46.20
2018-05-04T05:26:02.685Z,46.10
2018-05-04T05:28:07.956Z,46.00
2018-05-04T05:30:13.054Z,45.70
2018-05-04T05:32:17.668Z,45.40
2018-05-04T05:34:22.761Z,45.30
2018-05-04T05:36:26.797Z,45.10
2018-05-04T05:38:30.671Z,45.20
2018-05-04T05:40:35.092Z,45.00
2018-05-04T05:42:39.095Z,45.10
2018-05-04T05:44:43.004Z,44.40
2018-05-04T05:46:47.454Z,43.90
2018-05-04T05:48:51.312Z,44.30
2018-05-04T05:50:55.241Z,44.50
2018-05-04T05:53:01.639Z,44.50
2018-05-04T05:55:05.440Z,44.40
2018-05-04T05:57:10.004Z,44.40
2018-05-04T05:59:14.621Z,44.10
2018-05-04T06:01:19.570Z,44.00
2018-05-04T06:03:23.558Z,43.80
2018-05-04T06:05:28.545Z,43.70
2018-05-04T06:07:32.877Z,43.70
2018-05-04T06:09:36.792Z,43.70
2018-05-04T06:11:42.145Z,43.60
2018-05-04T06:13:46.704Z,43.70
2018-05-04T06:15:50.555Z,43.70
2018-05-04T06:17:56.366Z,43.30
2018-05-04T06:20:00.535Z,43.30
2018-05-04T06:22:05.237Z,43.00
2018-05-04T06:24:11.590Z,43.00
2018-05-04T06:26:17.248Z,43.00
2018-05-04T06:28:22.885Z,42.60
2018-05-04T06:30:27.183Z,42.50
2018-05-04T06:32:31.188Z,42.30
2018-05-04T06:34:35.106Z,42.40
2018-05-04T06:36:39.460Z,42.50
2018-05-04T06:38:43.835Z,42.40
2018-05-04T06:40:48.562Z,42.10
2018-05-04T06:42:52.759Z,41.60
2018-05-04T06:44:56.705Z,41.50
2018-05-04T06:47:07.174Z,41.40
2018-05-04T06:49:12.726Z,41.70
2018-05-04T06:51:18.292Z,42.00
2018-05-04T06:53:22.217Z,42.00
2018-05-04T06:55:28.903Z,41.30
2018-05-04T06:57:32.823Z,41.10
2018-05-04T06:59:37.793Z,41.00
2018-05-04T07:01:42.150Z,40.70
2018-05-04T07:03:46.371Z,40.70
2018-05-04T07:05:50.428Z,40.60
2018-05-04T07:07:54.893Z,40.50
2018-05-04T07:09:58.892Z,40.30
2018-05-04T07:12:02.708Z,40.10
2018-05-04T07:14:06.610Z,39.80
2018-05-04T07:16:11.289Z,39.80
2018-05-04T07:18:20.850Z,39.30
2018-05-04T07:20:30.945Z,38.50
2018-05-04T07:22:38.191Z,37.90
2018-05-04T07:24:50.334Z,38.10
2018-05-04T07:26:55.987Z,38.00
2018-05-04T07:29:02.024Z,38.00
2018-05-04T07:31:11.157Z,37.90
2018-05-04T07:33:14.955Z,37.70
2018-05-04T07:35:18.788Z,37.90
2018-05-04T07:37:23.704Z,37.00
2018-05-04T07:39:28.586Z,37.00
2018-05-04T07:41:32.644Z,36.90
2018-05-04T07:43:40.426Z,36.30
2018-05-04T07:45:54.018Z,36.20
2018-05-04T07:47:58.316Z,36.80
2018-05-04T07:50:03.310Z,37.50
2018-05-04T07:52:08.326Z,36.40
2018-05-04T07:54:15.031Z,36.20
2018-05-04T07:56:30.189Z,35.80
2018-05-04T07:58:34.965Z,35.80
2018-05-04T08:00:38.772Z,35.80
2018-05-04T08:02:47.672Z,36.00
2018-05-04T08:04:52.237Z,36.10
2018-05-04T08:06:56.435Z,36.40
2018-05-04T08:09:00.883Z,36.40
2018-05-04T08:11:05.507Z,36.70
2018-05-04T08:13:10.438Z,35.90
2018-05-04T08:15:16.593Z,36.10
2018-05-04T08:17:21.456Z,36.20
2018-05-04T08:19:26.056Z,36.70
2018-05-04T08:21:31.072Z,37.10
2018-05-04T08:23:34.970Z,37.10
2018-05-04T08:25:39.341Z,36.90
2018-05-04T08:27:44.562Z,36.90
2018-05-04T08:29:49.160Z,36.90
2018-05-04T08:31:53.111Z,36.90
2018-05-04T08:33:57.669Z,36.60
2018-05-04T08:36:01.901Z,36.70
2018-05-04T08:38:07.582Z,36.90
2018-05-04T08:40:11.755Z,36.80
2018-05-04T08:42:16.262Z,36.40
2018-05-04T08:44:20.128Z,35.80
2018-05-04T08:46:26.066Z,36.00
2018-05-04T08:48:30.724Z,36.60
2018-05-04T08:50:37.163Z,36.60
2018-05-04T08:52:41.476Z,36.30
2018-05-04T08:54:45.332Z,36.30
2018-05-04T08:56:49.217Z,35.90
2018-05-04T08:58:53.555Z,35.70
2018-05-04T09:00:57.452Z,35.20
2018-05-04T09:03:01.737Z,35.00
2018-05-04T09:05:05.816Z,35.30
2018-05-04T09:07:11.807Z,35.20
2018-05-04T09:09:16.423Z,35.30
2018-05-04T09:11:23.088Z,35.00
2018-05-04T09:13:27.597Z,35.00
2018-05-04T09:15:32.071Z,34.60
2018-05-04T09:17:36.350Z,34.30
2018-05-04T09:19:40.181Z,34.80
2018-05-04T09:21:44.263Z,34.40
2018-05-04T09:23:48.675Z,34.20
2018-05-04T09:25:52.565Z,34.00
2018-05-04T09:27:56.425Z,34.40
2018-05-04T09:30:00.360Z,33.40
2018-05-04T09:32:06.192Z,35.00
2018-05-04T09:34:10.055Z,34.10
2018-05-04T09:36:14.608Z,33.80
2018-05-04T09:38:18.561Z,32.60
2018-05-04T09:40:22.538Z,32.80
2018-05-04T09:42:27.898Z,32.80
2018-05-04T09:44:31.839Z,32.80
2018-05-04T09:46:35.819Z,33.70
2018-05-04T09:48:41.432Z,33.30
2018-05-04T09:50:46.061Z,32.50
2018-05-04T09:52:49.996Z,32.50
2018-05-04T09:54:53.851Z,32.60
2018-05-04T09:56:57.858Z,31.40
2018-05-04T09:59:01.917Z,30.90
2018-05-04T10:01:07.519Z,31.20
2018-05-04T10:03:12.101Z,30.90
2018-05-04T10:05:16.992Z,31.00
2018-05-04T10:07:22.279Z,31.50
2018-05-04T10:09:26.935Z,32.00
2018-05-04T10:11:30.942Z,32.60
2018-05-04T10:13:38.749Z,31.40
2018-05-04T10:15:42.580Z,31.80
2018-05-04T10:17:46.550Z,31.40
2018-05-04T10:19:50.760Z,31.90
2018-05-04T10:21:54.674Z,32.10
2018-05-04T10:23:58.587Z,32.20
2018-05-04T10:26:03.047Z,32.30
2018-05-04T10:28:06.975Z,32.30
2018-05-04T10:30:12.692Z,31.80
2018-05-04T10:32:17.352Z,32.00
2018-05-04T10:34:21.314Z,30.50
2018-05-04T10:36:25.301Z,30.90
2018-05-04T10:38:34.666Z,30.90
2018-05-04T10:40:42.415Z,30.80
2018-05-04T10:42:46.399Z,30.70
2018-05-04T10:44:51.185Z,30.70
2018-05-04T10:46:55.069Z,30.80
2018-05-04T10:49:00.784Z,30.30
2018-05-04T10:51:09.529Z,30.30
2018-05-04T10:53:14.260Z,29.90
2018-05-04T10:55:19.646Z,30.00
2018-05-04T10:57:24.097Z,30.00
2018-05-04T10:59:28.793Z,30.00
2018-05-04T11:01:32.780Z,29.50
2018-05-04T11:03:36.962Z,30.00
2018-05-04T11:05:40.785Z,30.30
2018-05-04T11:07:44.803Z,30.60
2018-05-04T11:09:49.128Z,29.50
2018-05-04T11:11:53.059Z,29.70
2018-05-04T11:13:57.043Z,29.90
2018-05-04T11:16:01.079Z,29.90
2018-05-04T11:18:04.980Z,29.60
2018-05-04T11:20:08.884Z,29.40
2018-05-04T11:22:14.223Z,29.90
2018-05-04T11:24:19.739Z,29.90
2018-05-04T11:26:24.210Z,29.10
2018-05-04T11:28:29.469Z,28.80
2018-05-04T11:30:33.606Z,28.80
2018-05-04T11:32:37.730Z,28.70
2018-05-04T11:34:42.893Z,28.90
2018-05-04T11:36:46.934Z,29.00
2018-05-04T11:38:51.560Z,28.50
2018-05-04T11:40:55.454Z,28.60
2018-05-04T11:43:00.123Z,28.80
2018-05-04T11:45:06.233Z,28.90
2018-05-04T11:47:14.351Z,29.10
2018-05-04T11:49:18.152Z,29.10
2018-05-04T11:51:22.710Z,29.20
2018-05-04T11:53:26.996Z,29.10
2018-05-04T11:55:30.844Z,29.20
2018-05-04T11:57:34.783Z,29.20
2018-05-04T11:59:39.751Z,29.60
2018-05-04T12:01:45.086Z,29.50
2018-05-04T12:03:48.936Z,29.30
2018-05-04T12:05:53.414Z,29.10
2018-05-04T12:07:57.266Z,28.60
2018-05-04T12:10:01.269Z,29.40
2018-05-04T12:12:05.454Z,29.20
2018-05-04T12:14:09.360Z,29.30
2018-05-04T12:16:14.468Z,28.60
2018-05-04T12:18:21.591Z,29.10
2018-05-04T12:20:26.349Z,29.20
2018-05-04T12:22:32.370Z,29.00
2018-05-04T12:24:36.807Z,28.90
2018-05-04T12:26:42.205Z,29.50
2018-05-04T12:28:46.599Z,29.60
2018-05-04T12:30:50.606Z,28.90
2018-05-04T12:32:54.682Z,29.80
2018-05-04T12:34:58.516Z,29.10
2018-05-04T12:37:02.538Z,28.90
2018-05-04T12:39:06.838Z,29.30
2018-05-04T12:41:10.918Z,29.00
2018-05-04T12:43:15.017Z,28.60
2018-05-04T12:45:19.221Z,28.80
2018-05-04T12:47:23.127Z,28.70
2018-05-04T12:49:27.025Z,28.70
2018-05-04T12:51:30.925Z,28.80
2018-05-04T12:53:34.955Z,29.40
2018-05-04T12:55:38.823Z,28.80
2018-05-04T12:57:44.249Z,28.40
2018-05-04T12:59:48.199Z,28.10
2018-05-04T13:01:54.500Z,28.70
2018-05-04T13:03:59.639Z,28.90
2018-05-04T13:06:03.821Z,28.80
2018-05-04T13:08:07.770Z,28.80
2018-05-04T13:10:12.599Z,28.10
2018-05-04T13:12:16.503Z,27.90
2018-05-04T13:14:20.503Z,28.00
2018-05-04T13:16:24.782Z,28.20
2018-05-04T13:18:28.744Z,28.10
2018-05-04T13:20:32.817Z,28.00
2018-05-04T13:22:37.865Z,27.90
2018-05-04T13:24:41.778Z,27.90
2018-05-04T13:26:45.727Z,27.90
2018-05-04T13:28:50.119Z,27.50
2018-05-04T13:30:54.835Z,27.40
2018-05-04T13:32:58.681Z,27.20
2018-05-04T13:35:02.855Z,27.40
2018-05-04T13:37:08.212Z,26.80
2018-05-04T13:39:12.277Z,26.50
2018-05-04T13:41:17.037Z,26.40
2018-05-04T13:43:20.948Z,26.50
2018-05-04T13:45:24.829Z,26.50
2018-05-04T13:47:28.630Z,25.90
2018-05-04T13:49:32.760Z,25.70
2018-05-04T13:51:36.644Z,25.50
2018-05-04T13:53:42.071Z,25.50
2018-05-04T13:55:46.928Z,25.90
2018-05-04T13:58:09.426Z,25.90
2018-05-04T14:00:16.243Z,24.90
2018-05-04T14:02:20.515Z,25.60
2018-05-04T14:04:24.556Z,24.60
2018-05-04T14:06:28.691Z,24.80
2018-05-04T14:08:32.642Z,25.10
2018-05-04T14:10:36.524Z,25.00
2018-05-04T14:12:40.550Z,25.20
2018-05-04T14:14:44.423Z,24.10
2018-05-04T14:16:48.667Z,24.20
2018-05-04T14:18:52.524Z,24.00
2018-05-04T14:20:56.493Z,24.40
2018-05-04T14:23:03.476Z,24.40
2018-05-04T14:25:07.533Z,24.30
2018-05-04T14:27:14.185Z,24.50
2018-05-04T14:29:20.817Z,24.40
2018-05-04T14:31:25.770Z,24.10
2018-05-04T14:33:29.626Z,24.10
2018-05-04T14:35:33.852Z,24.70
2018-05-04T14:37:37.753Z,24.10
2018-05-04T14:39:41.652Z,24.10
2018-05-04T14:41:45.616Z,24.30
2018-05-04T14:43:49.796Z,24.80
2018-05-04T14:45:53.653Z,24.70
2018-05-04T14:48:00.545Z,24.30
2018-05-04T14:50:04.404Z,24.30
2018-05-04T14:52:08.363Z,24.00
2018-05-04T14:54:12.755Z,24.30
2018-05-04T14:56:17.033Z,24.40
2018-05-04T14:58:21.790Z,24.50
2018-05-04T15:00:26.074Z,24.40
2018-05-04T15:02:32.198Z,24.40
2018-05-04T15:04:36.172Z,24.30
2018-05-04T15:06:39.980Z,24.20
2018-05-04T15:08:44.134Z,24.10
2018-05-04T15:10:47.969Z,24.10
2018-05-04T15:12:52.874Z,23.90
2018-05-04T15:14:58.467Z,24.40
2018-05-04T15:17:02.470Z,24.40
2018-05-04T15:19:06.795Z,24.30
2018-05-04T15:21:10.897Z,24.30
2018-05-04T15:23:15.304Z,24.20
2018-05-04T15:25:20.437Z,23.50
2018-05-04T15:27:24.580Z,23.40
2018-05-04T15:29:28.837Z,23.50
2018-05-04T15:31:33.595Z,24.40
2018-05-04T15:33:37.478Z,24.40
2018-05-04T15:35:42.943Z,24.40
2018-05-04T15:37:46.780Z,24.60
2018-05-04T15:39:51.675Z,24.90
2018-05-04T15:41:55.594Z,25.50
2018-05-04T15:43:59.494Z,25.90
2018-05-04T15:46:03.469Z,26.00
2018-05-04T15:48:11.861Z,25.80
2018-05-04T15:50:20.014Z,25.60
2018-05-04T15:52:24.059Z,26.10
2018-05-04T15:54:30.503Z,26.90
2018-05-04T15:56:40.677Z,25.90
2018-05-04T15:58:44.646Z,25.80
2018-05-04T16:00:48.830Z,26.30
2018-05-04T16:02:52.637Z,26.40
2018-05-04T16:04:58.211Z,26.70
2018-05-04T16:07:02.169Z,26.60
2018-05-04T16:09:07.178Z,26.40
2018-05-04T16:11:11.026Z,26.40
2018-05-04T16:13:15.110Z,26.10
2018-05-04T16:15:19.850Z,26.80
2018-05-04T16:17:24.025Z,26.80
2018-05-04T16:19:28.304Z,26.90
2018-05-04T16:21:32.158Z,26.70
2018-05-04T16:23:35.984Z,26.70
2018-05-04T16:25:40.147Z,26.70
2018-05-04T16:27:44.005Z,26.60
2018-05-04T16:29:47.808Z,26.80
2018-05-04T16:31:51.924Z,26.60
2018-05-04T16:33:55.841Z,26.80
2018-05-04T16:35:59.686Z,27.10
2018-05-04T16:38:03.781Z,27.00
2018-05-04T16:40:07.615Z,26.80
2018-05-04T16:42:12.466Z,27.50
2018-05-04T16:44:17.688Z,27.40
2018-05-04T16:46:26.618Z,28.00
2018-05-04T16:48:35.472Z,28.30
2018-05-04T16:50:39.842Z,28.30
2018-05-04T16:52:44.573Z,28.50
2018-05-04T16:54:49.927Z,28.40
2018-05-04T16:56:54.637Z,28.40
2018-05-04T16:58:59.369Z,28.90
2018-05-04T17:01:04.760Z,28.80
2018-05-04T17:03:08.974Z,28.70
2018-05-04T17:05:13.132Z,28.80
2018-05-04T17:07:17.095Z,29.20
2018-05-04T17:09:21.426Z,29.40
2018-05-04T17:11:25.747Z,29.40
2018-05-04T17:13:29.683Z,29.60
2018-05-04T17:15:35.275Z,29.60
2018-05-04T17:17:39.263Z,29.20
2018-05-04T17:19:43.214Z,29.30
2018-05-04T17:21:49.017Z,29.90
2018-05-04T17:23:52.969Z,29.90
2018-05-04T17:25:56.880Z,30.00
2018-05-04T17:28:00.766Z,30.30
2018-05-04T17:30:07.313Z,31.10
2018-05-04T17:32:11.291Z,30.90
2018-05-04T17:34:15.258Z,31.00
2018-05-04T17:36:19.073Z,31.10
2018-05-04T17:38:23.104Z,31.90
2018-05-04T17:40:28.052Z,32.40
2018-05-04T17:42:32.307Z,33.30
2018-05-04T17:44:37.726Z,34.40
2018-05-04T17:46:41.885Z,35.30
2018-05-04T17:48:45.867Z,36.40
2018-05-04T17:50:50.425Z,36.40
2018-05-04T17:52:55.002Z,38.10
2018-05-04T17:54:58.969Z,38.40
2018-05-04T17:57:03.613Z,39.40
2018-05-04T17:59:07.446Z,39.30
2018-05-04T18:01:11.308Z,39.60
2018-05-04T18:03:15.588Z,39.90
2018-05-04T18:05:20.339Z,40.30
2018-05-04T18:07:24.959Z,40.20
2018-05-04T18:09:30.388Z,40.70
2018-05-04T18:11:34.975Z,41.10
2018-05-04T18:13:47.386Z,41.40
2018-05-04T18:15:52.290Z,41.50
2018-05-04T18:17:56.151Z,41.50
2018-05-04T18:20:00.145Z,41.60
2018-05-04T18:22:04.326Z,42.10
2018-05-04T18:24:08.147Z,42.30
2018-05-04T18:26:12.095Z,42.50
2018-05-04T18:28:16.022Z,42.80
2018-05-04T18:30:19.951Z,43.20
2018-05-04T18:32:24.066Z,43.70
2018-05-04T18:34:29.185Z,44.00
2018-05-04T18:36:32.994Z,44.20
2018-05-04T18:38:37.404Z,44.40
2018-05-04T18:40:41.750Z,44.50
2018-05-04T18:42:45.626Z,45.00
2018-05-04T18:44:49.553Z,45.00
2018-05-04T18:46:54.721Z,45.20
2018-05-04T18:48:59.403Z,45.70
2018-05-04T18:51:03.317Z,45.60
2018-05-04T18:53:07.239Z,45.70
2018-05-04T18:55:11.062Z,45.60
2018-05-04T18:57:15.022Z,45.90
2018-05-04T18:59:18.926Z,46.00
2018-05-04T19:01:23.097Z,46.00
2018-05-04T19:03:27.178Z,46.10
2018-05-04T19:05:31.357Z,46.20
2018-05-04T19:07:35.243Z,46.20
2018-05-04T19:09:39.154Z,46.30
2018-05-04T19:11:44.351Z,46.20
2018-05-04T19:13:49.018Z,46.10
2018-05-04T19:15:52.974Z,46.10
2018-05-04T19:17:56.865Z,46.20
2018-05-04T19:20:01.121Z,46.50
2018-05-04T19:22:05.019Z,46.80
2018-05-04T19:24:09.145Z,47.00
2018-05-04T19:26:13.015Z,46.90
2018-05-04T19:28:17.598Z,47.00
2018-05-04T19:30:21.977Z,47.00
2018-05-04T19:32:26.240Z,47.00
2018-05-04T19:34:30.247Z,47.00
2018-05-04T19:36:34.380Z,46.80
2018-05-04T19:38:39.077Z,46.70
2018-05-04T19:40:43.073Z,46.70
2018-05-04T19:42:47.294Z,46.80
2018-05-04T19:44:51.135Z,46.90
2018-05-04T19:46:55.073Z,47.10
2018-05-04T19:48:58.942Z,47.20
2018-05-04T19:51:04.639Z,47.30
2018-05-04T19:53:08.523Z,47.30
2018-05-04T19:55:13.708Z,47.30
2018-05-04T19:57:17.527Z,47.40
2018-05-04T19:59:22.313Z,47.40
2018-05-04T20:01:30.139Z,47.40
2018-05-04T20:03:34.851Z,47.50
2018-05-04T20:05:38.818Z,47.40
2018-05-04T20:07:43.990Z,47.50
2018-05-04T20:09:48.020Z,47.50
2018-05-04T20:11:52.908Z,47.40
2018-05-04T20:13:56.746Z,47.40
2018-05-04T20:16:01.545Z,47.30
2018-05-04T20:18:05.493Z,47.20
2018-05-04T20:20:10.718Z,47.20
2018-05-04T20:22:14.616Z,47.30
2018-05-04T20:24:18.580Z,47.50
2018-05-04T20:26:24.173Z,47.50
2018-05-04T20:28:28.213Z,47.60
2018-05-04T20:30:33.031Z,47.30
2018-05-04T20:32:38.087Z,47.40
2018-05-04T20:34:42.046Z,47.30
2018-05-04T20:36:45.994Z,47.20
2018-05-04T20:38:50.378Z,47.30
2018-05-04T20:40:54.242Z,47.50
2018-05-04T20:42:59.144Z,47.50
2018-05-04T20:45:05.178Z,47.50
2018-05-04T20:47:09.781Z,47.60
2018-05-04T20:49:13.678Z,47.60
2018-05-04T20:51:17.846Z,47.60
2018-05-04T20:53:21.745Z,47.80
2018-05-04T20:55:25.989Z,47.60
2018-05-04T20:57:30.286Z,47.50
2018-05-04T20:59:34.134Z,47.60
2018-05-04T21:01:37.999Z,47.60
2018-05-04T21:03:41.902Z,47.70
2018-05-04T21:05:45.915Z,47.80
2018-05-04T21:07:49.762Z,47.90
2018-05-04T21:09:53.750Z,48.80
2018-05-04T21:11:57.665Z,48.20
2018-05-04T21:14:01.590Z,48.40
2018-05-04T21:16:05.713Z,48.40
2018-05-04T21:18:10.397Z,48.80
2018-05-04T21:20:14.262Z,48.80
2018-05-04T21:22:18.585Z,48.90
2018-05-04T21:24:22.505Z,49.00
2018-05-04T21:26:26.743Z,49.20
2018-05-04T21:28:31.005Z,49.20
2018-05-04T21:30:34.859Z,49.20
2018-05-04T21:32:38.777Z,49.00
2018-05-04T21:34:43.906Z,49.10
2018-05-04T21:36:47.773Z,49.00
2018-05-04T21:38:52.444Z,48.90
2018-05-04T21:40:57.640Z,48.80
2018-05-04T21:43:02.306Z,48.90
2018-05-04T21:45:07.317Z,49.00
2018-05-04T21:47:11.479Z,49.00
2018-05-04T21:49:15.318Z,49.00
2018-05-04T21:51:19.260Z,49.20
2018-05-04T21:53:23.739Z,49.20
2018-05-04T21:55:27.795Z,49.30
2018-05-04T21:57:32.433Z,49.30
2018-05-04T21:59:36.234Z,49.20
2018-05-04T22:01:40.943Z,49.20
2018-05-04T22:03:45.575Z,49.30
2018-05-04T22:05:50.484Z,49.40
2018-05-04T22:07:54.466Z,49.30
2018-05-04T22:09:58.283Z,49.40
2018-05-04T22:12:03.441Z,49.30
2018-05-04T22:14:08.049Z,49.20
2018-05-04T22:16:12.035Z,49.20
2018-05-04T22:18:16.259Z,49.20
2018-05-04T22:20:20.182Z,49.30
2018-05-04T22:22:24.990Z,49.80
2018-05-04T22:24:28.938Z,49.30
2018-05-04T22:26:32.925Z,49.60
2018-05-04T22:28:37.616Z,50.30
2018-05-04T22:30:41.471Z,50.30
2018-05-04T22:32:46.143Z,50.90
2018-05-04T22:34:49.952Z,50.90
2018-05-04T22:36:54.157Z,51.00
2018-05-04T22:38:57.916Z,51.10
2018-05-04T22:41:01.782Z,51.30
2018-05-04T22:43:06.055Z,51.30
2018-05-04T22:45:10.020Z,51.50
2018-05-04T22:47:13.892Z,51.50
2018-05-04T22:49:17.725Z,51.50
2018-05-04T22:51:21.603Z,51.70
2018-05-04T22:53:25.721Z,51.90
2018-05-04T22:55:31.708Z,52.00
2018-05-04T22:57:36.295Z,52.10
2018-05-04T22:59:40.142Z,52.10
2018-05-04T23:01:45.233Z,52.10
2018-05-04T23:03:49.096Z,52.20
2018-05-04T23:05:53.578Z,52.20
2018-05-04T23:07:57.716Z,52.30
2018-05-04T23:10:01.596Z,52.30
2018-05-04T23:12:05.478Z,52.40
2018-05-04T23:14:09.627Z,52.30
2018-05-04T23:16:14.171Z,52.60
2018-05-04T23:18:17.965Z,52.60
2018-05-04T23:20:22.260Z,52.50
2018-05-04T23:22:29.233Z,53.40
2018-05-04T23:24:33.187Z,52.70
2018-05-04T23:26:37.297Z,52.70
2018-05-04T23:28:41.111Z,52.80
2018-05-04T23:30:44.920Z,52.80
2018-05-04T23:32:49.129Z,52.50
2018-05-04T23:34:53.367Z,52.40
2018-05-04T23:36:57.181Z,52.30
2018-05-04T23:39:02.097Z,52.20
2018-05-04T23:41:05.935Z,52.20
2018-05-04T23:43:10.466Z,52.10
2018-05-04T23:45:16.152Z,52.10
2018-05-04T23:47:21.954Z,52.20
2018-05-04T23:49:25.818Z,52.30
2018-05-04T23:51:29.735Z,53.00
2018-05-04T23:53:33.560Z,52.10
2018-05-04T23:55:38.434Z,52.30
2018-05-04T23:57:42.303Z,52.20
2018-05-04T23:59:46.425Z,52.10
